Time;durP1;ratioP1;P1;durP2;ratioP2;P2;SDS_P1;SDS_P2;PMS_P1;PMS_P2;Temp;Humidity;BMP_temperature;BMP_pressure;BME280_temperature;BME280_humidity;BME280_pressure;Samples;Min_cycle;Max_cycle;Signal;HPM_P1;HPM_P2
2023/06/12 00:02:14;;;;;;;8.43;4.70;;;21.20;53.80;;;;;;5032770;28;20445;-49
2023/06/12 00:04:44;;;;;;;5.83;4.80;;;21.10;53.70;;;;;;5032748;28;20473;-49
2023/06/12 00:07:11;;;;;;;6.13;4.97;;;21.10;53.80;;;;;;5032919;28;20439;-49
2023/06/12 00:09:37;;;;;;;4.90;4.40;;;21.20;53.90;;;;;;5032262;28;20464;-49
2023/06/12 00:12:05;;;;;;;9.17;5.10;;;21.00;53.80;;;;;;5032608;28;20438;-50
2023/06/12 00:14:32;;;;;;;7.27;4.90;;;21.00;53.90;;;;;;5032515;28;20981;-48
2023/06/12 00:16:58;;;;;;;6.43;4.90;;;21.00;53.80;;;;;;5032478;28;20433;-51
2023/06/12 00:19:27;;;;;;;6.40;4.57;;;21.00;53.80;;;;;;5014599;28;20461;-49
2023/06/12 00:21:54;;;;;;;10.80;4.43;;;20.90;53.50;;;;;;5032764;28;20472;-48
2023/06/12 00:24:21;;;;;;;7.70;4.77;;;20.90;53.40;;;;;;5032564;28;21001;-50
2023/06/12 00:26:47;;;;;;;9.77;4.40;;;20.90;53.20;;;;;;5032391;28;20960;-50
2023/06/12 00:29:14;;;;;;;4.60;4.20;;;20.90;53.20;;;;;;5014613;28;20480;-48
2023/06/12 00:31:41;;;;;;;10.53;5.20;;;20.80;53.00;;;;;;5032576;28;20440;-48
2023/06/12 00:34:08;;;;;;;5.83;4.20;;;20.70;52.80;;;;;;5015005;28;21006;-49
2023/06/12 00:36:35;;;;;;;4.83;4.10;;;20.50;52.60;;;;;;5032515;28;20464;-49
2023/06/12 00:39:03;;;;;;;6.03;4.13;;;20.70;52.70;;;;;;5014308;28;20453;-48
2023/06/12 00:41:29;;;;;;;4.67;4.07;;;20.70;52.60;;;;;;5031867;28;20798;-49
2023/06/12 00:43:56;;;;;;;5.40;4.37;;;20.60;52.50;;;;;;5032252;28;20878;-49
2023/06/12 00:46:23;;;;;;;5.07;4.57;;;20.50;52.50;;;;;;5032303;28;21071;-50
2023/06/12 00:48:50;;;;;;;7.27;4.30;;;20.60;52.70;;;;;;5031981;28;20753;-49
2023/06/12 00:51:17;;;;;;;5.47;4.07;;;20.50;52.60;;;;;;5014247;28;20509;-49
2023/06/12 00:53:45;;;;;;;7.00;4.77;;;20.50;52.70;;;;;;5032167;28;20481;-49
2023/06/12 00:56:13;;;;;;;5.40;4.40;;;20.30;52.60;;;;;;5014285;28;20456;-47
2023/06/12 00:58:40;;;;;;;6.43;4.07;;;20.40;52.70;;;;;;5031762;28;20444;-49
2023/06/12 01:01:08;;;;;;;4.60;3.50;;;20.40;52.70;;;;;;5014101;28;20588;-49
2023/06/12 01:03:35;;;;;;;4.90;4.17;;;20.30;52.70;;;;;;5014203;28;21036;-48
2023/06/12 01:06:09;;;;;;;8.30;4.80;;;20.10;52.70;;;;;;5014220;28;20452;-50
2023/06/12 01:08:47;;;;;;;7.47;4.30;;;20.20;52.80;;;;;;5031955;28;20460;-48
2023/06/12 01:11:17;;;;;;;7.47;4.63;;;20.20;52.80;;;;;;5032334;28;20479;-48
2023/06/12 01:13:44;;;;;;;7.73;4.23;;;20.10;52.80;;;;;;5014135;28;21049;-50
2023/06/12 01:16:11;;;;;;;6.23;3.90;;;20.10;52.80;;;;;;5014064;28;20453;-49
2023/06/12 01:18:37;;;;;;;6.30;4.60;;;20.10;52.80;;;;;;5031411;28;20433;-48
2023/06/12 01:21:12;;;;;;;4.23;3.80;;;20.10;52.80;;;;;;5031584;28;21018;-49
2023/06/12 01:23:59;;;;;;;8.50;4.60;;;20.10;52.70;;;;;;5014024;28;20936;-49
2023/06/12 01:26:57;;;;;;;5.40;4.33;;;20.00;52.50;;;;;;5014061;28;20462;-48
2023/06/12 01:29:47;;;;;;;8.53;4.70;;;20.00;52.50;;;;;;5031801;28;20891;-49
2023/06/12 01:32:16;;;;;;;6.10;3.90;;;19.90;52.40;;;;;;5031662;28;20431;-50
2023/06/12 01:34:51;;;;;;;6.10;4.10;;;19.90;52.40;;;;;;5013881;28;20515;-47
2023/06/12 01:37:27;;;;;;;4.20;3.80;;;19.60;51.80;;;;;;5013971;28;20784;-48
2023/06/12 01:39:57;;;;;;;6.17;4.20;;;19.90;51.70;;;;;;5031482;28;20829;-49
2023/06/12 01:42:26;;;;;;;9.90;3.53;;;19.90;51.50;;;;;;5013982;28;20982;-49
2023/06/12 01:44:53;;;;;;;5.60;3.83;;;19.90;51.40;;;;;;5013745;28;20451;-49
2023/06/12 01:47:21;;;;;;;10.90;4.73;;;19.80;51.20;;;;;;5013718;28;20463;-48
2023/06/12 01:49:49;;;;;;;5.80;4.20;;;19.80;51.20;;;;;;5013290;28;21054;-48
2023/06/12 01:52:16;;;;;;;5.57;3.50;;;19.80;51.10;;;;;;5014474;28;20492;-48
2023/06/12 01:54:45;;;;;;;5.17;3.83;;;19.70;50.90;;;;;;5017351;28;20916;-48
2023/06/12 01:57:12;;;;;;;7.93;3.00;;;19.70;50.90;;;;;;5017364;28;20458;-48
2023/06/12 01:59:41;;;;;;;4.73;3.47;;;19.70;50.80;;;;;;5016867;28;21047;-49
2023/06/12 02:02:08;;;;;;;8.60;3.60;;;19.70;50.80;;;;;;5016841;28;20458;-49
2023/06/12 02:04:36;;;;;;;7.50;4.20;;;19.70;50.90;;;;;;5017127;28;20448;-50
2023/06/12 02:07:03;;;;;;;10.77;4.20;;;19.60;50.90;;;;;;5017272;28;20455;-49
2023/06/12 02:09:31;;;;;;;12.77;4.40;;;19.30;50.80;;;;;;5016965;28;20554;-49
2023/06/12 02:11:58;;;;;;;5.03;4.13;;;19.50;51.10;;;;;;5017187;28;20451;-48
2023/06/12 02:14:25;;;;;;;11.13;4.50;;;19.50;51.30;;;;;;5017095;28;20475;-48
2023/06/12 02:16:53;;;;;;;5.00;3.83;;;19.50;51.50;;;;;;5016980;28;20451;-49
2023/06/12 02:19:25;;;;;;;7.40;4.40;;;19.30;51.50;;;;;;5016554;28;20487;-49
2023/06/12 02:21:53;;;;;;;14.03;4.50;;;19.40;51.80;;;;;;5016980;28;20448;-48
2023/06/12 02:24:20;;;;;;;5.30;4.07;;;19.20;51.80;;;;;;5016850;28;20443;-49
2023/06/12 02:26:47;;;;;;;7.80;5.00;;;19.30;52.10;;;;;;5016760;28;20823;-49
2023/06/12 02:29:14;;;;;;;4.00;3.60;;;19.50;52.40;;;;;;5016096;28;20493;-50
2023/06/12 02:31:45;;;;;;;5.33;3.93;;;19.20;52.60;;;;;;5034795;28;20622;-48
2023/06/12 02:34:12;;;;;;;5.40;4.43;;;19.20;53.20;;;;;;5016643;28;20479;-49
2023/06/12 02:36:41;;;;;;;6.23;5.63;;;18.80;53.30;;;;;;5016690;28;20967;-49
2023/06/12 02:39:13;;;;;;;7.20;4.40;;;19.20;53.90;;;;;;5016301;28;20541;-49
2023/06/12 02:41:42;;;;;;;5.30;4.80;;;19.20;54.30;;;;;;5016521;28;20455;-49
2023/06/12 02:44:10;;;;;;;6.67;4.73;;;18.90;54.50;;;;;;5016487;28;20454;-49
2023/06/12 02:46:50;;;;;;;8.60;4.73;;;18.70;54.80;;;;;;5016434;28;20463;-48
2023/06/12 02:49:17;;;;;;;5.70;5.00;;;18.90;55.30;;;;;;5033735;28;20466;-50
2023/06/12 02:51:44;;;;;;;6.73;4.80;;;18.80;55.50;;;;;;5023746;28;20500;-49
2023/06/12 02:54:12;;;;;;;5.47;4.60;;;18.70;55.60;;;;;;5035978;28;20556;-48
2023/06/12 02:56:41;;;;;;;4.77;4.30;;;18.70;55.80;;;;;;5035994;28;20453;-49
2023/06/12 02:59:10;;;;;;;10.70;4.40;;;18.70;55.80;;;;;;5035694;28;20458;-48
2023/06/12 03:01:41;;;;;;;6.37;4.17;;;18.70;56.00;;;;;;5035938;28;20556;-49
2023/06/12 03:04:09;;;;;;;10.43;5.03;;;18.80;56.40;;;;;;5035362;28;20493;-49
2023/06/12 03:06:36;;;;;;;6.40;5.13;;;18.60;56.30;;;;;;5035943;28;20503;-49
2023/06/12 03:09:03;;;;;;;6.40;4.63;;;18.60;56.40;;;;;;5035641;28;20537;-48
2023/06/12 03:11:34;;;;;;;5.07;4.60;;;18.60;56.50;;;;;;5036045;28;20450;-49
2023/06/12 03:14:02;;;;;;;6.50;5.30;;;18.60;56.60;;;;;;5035598;28;20573;-50
2023/06/12 03:16:30;;;;;;;8.13;4.83;;;18.50;56.50;;;;;;5036064;28;20503;-49
2023/06/12 03:18:57;;;;;;;5.20;4.70;;;18.50;56.70;;;;;;5035177;28;20550;-49
2023/06/12 03:21:24;;;;;;;8.80;5.20;;;18.40;56.80;;;;;;5053377;28;20930;-50
2023/06/12 03:23:51;;;;;;;7.03;5.03;;;18.50;56.80;;;;;;5035767;28;20447;-50
2023/06/12 03:26:18;;;;;;;8.67;5.07;;;18.40;56.90;;;;;;5035626;28;20460;-49
2023/06/12 03:28:46;;;;;;;5.63;4.27;;;18.50;57.00;;;;;;5035085;28;21040;-50
2023/06/12 03:31:13;;;;;;;7.90;5.40;;;18.60;57.00;;;;;;5053091;28;20453;-50
2023/06/12 03:33:40;;;;;;;7.70;5.57;;;18.00;56.60;;;;;;5035254;28;20477;-49
2023/06/12 03:36:12;;;;;;;5.77;4.70;;;18.40;56.80;;;;;;5035213;28;20461;-49
2023/06/12 03:38:39;;;;;;;16.07;5.80;;;18.40;56.80;;;;;;5034770;28;21018;-50
2023/06/12 03:41:07;;;;;;;7.30;4.93;;;18.40;56.70;;;;;;5035071;28;20478;-48
2023/06/12 03:43:34;;;;;;;5.40;4.30;;;18.70;56.90;;;;;;5052879;28;20437;-48
2023/06/12 03:46:02;;;;;;;5.97;4.70;;;18.50;56.80;;;;;;5053130;28;20430;-48
2023/06/12 03:48:28;;;;;;;8.13;4.13;;;18.50;56.70;;;;;;5052543;28;20438;-49
2023/06/12 03:50:55;;;;;;;8.43;4.80;;;18.50;56.60;;;;;;5034804;28;20481;-49
2023/06/12 03:53:22;;;;;;;6.93;4.60;;;18.50;56.60;;;;;;5052884;28;20444;-48
2023/06/12 03:55:49;;;;;;;5.57;4.80;;;18.60;56.70;;;;;;5034718;28;20533;-49
2023/06/12 03:58:17;;;;;;;7.97;4.67;;;18.50;56.50;;;;;;5034603;28;20791;-49
2023/06/12 04:00:45;;;;;;;9.83;5.40;;;18.60;56.50;;;;;;5034647;28;20484;-50
2023/06/12 04:03:17;;;;;;;7.37;4.60;;;18.40;56.20;;;;;;5034886;28;20501;-48
2023/06/12 04:05:44;;;;;;;8.73;4.97;;;18.60;56.20;;;;;;5034834;28;20454;-49
2023/06/12 04:08:11;;;;;;;5.60;4.07;;;18.60;56.00;;;;;;5034278;28;20536;-49
2023/06/12 04:10:38;;;;;;;5.50;4.53;;;18.90;56.70;;;;;;5034339;28;20970;-49
2023/06/12 04:13:05;;;;;;;7.80;5.17;;;18.80;56.00;;;;;;5034542;28;20830;-49
2023/06/12 04:15:32;;;;;;;8.00;4.43;;;19.20;56.30;;;;;;5034199;28;20509;-50
2023/06/12 04:17:59;;;;;;;6.00;4.40;;;18.90;55.90;;;;;;5034446;28;20537;-49
2023/06/12 04:20:27;;;;;;;9.30;5.17;;;19.10;55.80;;;;;;5051997;28;20458;-48
2023/06/12 04:22:56;;;;;;;7.47;5.00;;;19.10;55.60;;;;;;5034416;28;20997;-49
2023/06/12 04:25:25;;;;;;;7.80;4.20;;;19.40;55.60;;;;;;5052132;28;20427;-49
2023/06/12 04:27:52;;;;;;;5.70;4.37;;;19.50;55.30;;;;;;5051851;28;20985;-48
2023/06/12 04:30:21;;;;;;;8.83;5.10;;;19.60;55.00;;;;;;5033737;28;20849;-49
2023/06/12 04:32:49;;;;;;;9.10;4.93;;;19.50;54.60;;;;;;5034275;28;20443;-49
2023/06/12 04:35:17;;;;;;;13.13;5.00;;;19.90;54.90;;;;;;5034154;28;20478;-49
2023/06/12 04:37:48;;;;;;;8.97;4.60;;;19.80;54.70;;;;;;5034088;28;20560;-49
2023/06/12 04:40:14;;;;;;;9.40;4.03;;;20.10;54.60;;;;;;5033829;28;20565;-49
2023/06/12 04:42:43;;;;;;;5.97;3.93;;;20.20;54.40;;;;;;5034436;28;20456;-50
2023/06/12 04:45:12;;;;;;;9.63;5.10;;;20.30;54.00;;;;;;5033706;28;20452;-49
2023/06/12 04:47:40;;;;;;;14.20;5.20;;;20.40;53.90;;;;;;5034085;28;20792;-50
2023/06/12 04:50:10;;;;;;;12.83;4.70;;;20.40;53.60;;;;;;5051339;28;20849;-49
2023/06/12 04:52:37;;;;;;;7.93;5.23;;;20.50;53.50;;;;;;5034037;28;20450;-48
2023/06/12 04:55:08;;;;;;;6.27;4.77;;;20.40;53.40;;;;;;5033939;28;20478;-49
2023/06/12 04:57:36;;;;;;;15.03;7.50;;;20.60;53.40;;;;;;5033972;28;20447;-48
2023/06/12 05:00:05;;;;;;;12.30;7.93;;;20.60;53.20;;;;;;5033828;28;20893;-49
2023/06/12 05:02:33;;;;;;;12.70;8.90;;;20.70;53.20;;;;;;5033747;28;20447;-49
2023/06/12 05:05:00;;;;;;;21.33;9.87;;;20.90;53.00;;;;;;5051871;28;20455;-49
2023/06/12 05:07:27;;;;;;;14.57;10.73;;;20.80;52.60;;;;;;5051451;28;20799;-49
2023/06/12 05:09:58;;;;;;;15.07;10.63;;;20.90;52.50;;;;;;5033013;28;20484;-50
2023/06/12 05:12:26;;;;;;;12.70;9.50;;;21.00;52.60;;;;;;5033827;28;20805;-50
2023/06/12 05:14:53;;;;;;;18.60;8.10;;;21.00;52.40;;;;;;5033626;28;20474;-48
2023/06/12 05:17:20;;;;;;;15.73;9.23;;;21.10;52.40;;;;;;5033689;28;20956;-49
2023/06/12 05:19:47;;;;;;;12.33;8.67;;;20.80;52.10;;;;;;5033026;28;20477;-50
2023/06/12 05:22:14;;;;;;;27.20;13.20;;;20.90;52.10;;;;;;5033487;28;20457;-49
2023/06/12 05:24:42;;;;;;;18.90;10.73;;;21.20;52.30;;;;;;5033600;28;20454;-50
2023/06/12 05:27:10;;;;;;;11.43;7.83;;;21.20;52.30;;;;;;5034005;28;20819;-49
2023/06/12 05:29:38;;;;;;;20.27;8.27;;;21.30;52.20;;;;;;5036728;28;20804;-50
2023/06/12 05:32:06;;;;;;;10.73;7.27;;;21.40;52.00;;;;;;5037265;28;20510;-48
2023/06/12 05:34:33;;;;;;;7.93;4.67;;;21.60;51.90;;;;;;5037388;28;20489;-49
2023/06/12 05:37:00;;;;;;;7.40;4.40;;;21.10;51.30;;;;;;5037117;28;20454;-50
2023/06/12 05:39:28;;;;;;;12.23;4.27;;;21.70;51.60;;;;;;5037168;28;20479;-49
2023/06/12 05:41:55;;;;;;;8.10;4.40;;;21.80;51.70;;;;;;5036806;28;20472;-50
2023/06/12 05:44:22;;;;;;;11.37;4.70;;;21.80;51.50;;;;;;5036789;28;20456;-51
2023/06/12 05:46:51;;;;;;;6.40;4.43;;;21.90;51.30;;;;;;5036774;28;20473;-50
2023/06/12 05:49:18;;;;;;;5.20;4.07;;;22.10;51.40;;;;;;5036794;28;20477;-47
2023/06/12 05:51:45;;;;;;;7.53;4.10;;;22.10;51.10;;;;;;5054718;28;20441;-46
2023/06/12 05:54:12;;;;;;;6.03;4.03;;;22.10;51.10;;;;;;5036172;28;20451;-48
2023/06/12 05:56:39;;;;;;;12.40;3.97;;;22.10;51.10;;;;;;5036555;28;20493;-47
2023/06/12 05:59:06;;;;;;;6.50;4.20;;;22.20;51.10;;;;;;5054367;28;20927;-50
2023/06/12 06:01:33;;;;;;;10.30;4.30;;;22.20;51.20;;;;;;5036126;28;20448;-47
2023/06/12 06:04:01;;;;;;;11.77;4.10;;;22.30;51.40;;;;;;5036539;28;20457;-48
2023/06/12 06:06:30;;;;;;;8.57;4.50;;;22.40;51.40;;;;;;5036726;28;20464;-47
2023/06/12 06:08:58;;;;;;;6.83;3.50;;;22.60;51.40;;;;;;5036195;28;20450;-49
2023/06/12 06:11:25;;;;;;;8.03;4.33;;;22.70;51.30;;;;;;5036628;28;20478;-47
2023/06/12 06:13:53;;;;;;;8.37;4.37;;;22.70;51.20;;;;;;5036534;28;20465;-47
2023/06/12 06:16:19;;;;;;;11.00;4.50;;;22.80;51.00;;;;;;5054269;28;20471;-47
2023/06/12 06:18:46;;;;;;;7.37;4.97;;;22.80;51.10;;;;;;5035875;28;20902;-48
2023/06/12 06:21:15;;;;;;;7.20;4.37;;;22.80;51.10;;;;;;5036237;28;20503;-47
2023/06/12 06:23:41;;;;;;;4.27;3.80;;;22.80;51.00;;;;;;5036116;28;20466;-47
2023/06/12 06:26:09;;;;;;;9.20;4.50;;;23.00;51.00;;;;;;5036286;28;20539;-48
2023/06/12 06:28:36;;;;;;;9.90;4.50;;;23.10;50.90;;;;;;5035867;28;20449;-47
2023/06/12 06:31:03;;;;;;;15.20;4.03;;;23.20;50.50;;;;;;5035673;28;20469;-47
2023/06/12 06:33:32;;;;;;;6.37;3.87;;;23.30;50.30;;;;;;5036046;28;20514;-49
2023/06/12 06:35:59;;;;;;;9.30;5.23;;;23.40;50.40;;;;;;5036019;28;20863;-48
2023/06/12 06:38:27;;;;;;;7.13;4.70;;;23.40;50.40;;;;;;5034840;28;20440;-48
2023/06/12 06:40:55;;;;;;;8.70;4.60;;;23.40;50.60;;;;;;5035917;28;20470;-48
2023/06/12 06:43:22;;;;;;;6.90;4.00;;;23.40;50.70;;;;;;5035951;28;20468;-47
2023/06/12 06:45:55;;;;;;;11.23;4.70;;;23.40;50.60;;;;;;5035494;28;20445;-46
2023/06/12 06:48:22;;;;;;;8.87;4.73;;;23.40;50.50;;;;;;5035329;28;20452;-47
2023/06/12 06:50:49;;;;;;;4.97;4.10;;;23.40;50.50;;;;;;5035309;28;20864;-47
2023/06/12 06:53:15;;;;;;;7.00;4.40;;;23.20;50.20;;;;;;5035287;28;20544;-47
2023/06/12 06:55:44;;;;;;;10.00;4.57;;;23.30;50.30;;;;;;5035482;28;20475;-49
2023/06/12 06:58:13;;;;;;;8.10;4.10;;;23.10;50.20;;;;;;5035576;28;20559;-48
2023/06/12 07:00:40;;;;;;;14.20;4.33;;;23.20;50.60;;;;;;5035564;28;20481;-47
2023/06/12 07:03:08;;;;;;;9.77;4.73;;;23.30;50.80;;;;;;5035583;28;20452;-48
2023/06/12 07:05:36;;;;;;;11.03;4.40;;;23.30;50.60;;;;;;5035514;28;20557;-46
2023/06/12 07:08:03;;;;;;;9.20;5.17;;;23.30;51.10;;;;;;5035286;28;20524;-47
2023/06/12 07:10:33;;;;;;;7.67;4.43;;;23.30;51.00;;;;;;5035279;28;20891;-48
2023/06/12 07:13:02;;;;;;;8.33;4.53;;;23.20;51.10;;;;;;5035706;28;20448;-47
2023/06/12 07:15:43;;;;;;;6.60;4.70;;;23.70;51.50;;;;;;5034985;28;20493;-48
2023/06/12 07:18:11;;;;;;;9.67;4.93;;;23.30;50.90;;;;;;5035220;28;20816;-46
2023/06/12 07:20:38;;;;;;;5.47;4.17;;;23.40;50.90;;;;;;5035360;28;20546;-47
2023/06/12 07:23:05;;;;;;;6.60;4.10;;;23.50;50.90;;;;;;5035927;28;21121;-46
2023/06/12 07:25:32;;;;;;;5.33;4.13;;;23.60;50.50;;;;;;5035191;28;20440;-46
2023/06/12 07:28:02;;;;;;;9.53;4.30;;;23.70;50.40;;;;;;5034923;28;20510;-47
2023/06/12 07:30:30;;;;;;;5.07;4.20;;;23.70;50.30;;;;;;5034583;28;20487;-50
2023/06/12 07:32:57;;;;;;;5.23;3.43;;;23.70;50.30;;;;;;5053014;28;20441;-46
2023/06/12 07:35:23;;;;;;;9.80;4.37;;;23.70;49.80;;;;;;5034918;28;20556;-48
2023/06/12 07:37:50;;;;;;;6.30;4.00;;;23.60;49.70;;;;;;5034460;28;20438;-47
2023/06/12 07:40:17;;;;;;;5.73;4.13;;;23.50;48.90;;;;;;5034530;28;20496;-48
2023/06/12 07:42:45;;;;;;;9.10;4.57;;;23.70;49.10;;;;;;5034737;28;20446;-46
2023/06/12 07:45:14;;;;;;;4.40;3.77;;;23.70;49.00;;;;;;5034826;28;20482;-46
2023/06/12 07:47:43;;;;;;;10.57;4.30;;;23.70;48.70;;;;;;5034490;28;20453;-48
2023/06/12 07:50:10;;;;;;;6.17;4.30;;;23.80;48.80;;;;;;5033666;28;20495;-46
2023/06/12 07:52:37;;;;;;;6.77;5.10;;;24.10;48.30;;;;;;5034852;28;20451;-47
2023/06/12 07:55:06;;;;;;;5.33;3.80;;;23.90;47.30;;;;;;5034622;28;20511;-47
2023/06/12 07:57:33;;;;;;;4.70;3.80;;;23.90;47.20;;;;;;5052704;28;20457;-47
2023/06/12 07:59:59;;;;;;;5.10;4.60;;;23.90;47.40;;;;;;5051691;28;20467;-47
2023/06/12 08:02:31;;;;;;;5.83;3.53;;;23.70;47.10;;;;;;5034325;28;20969;-49
2023/06/12 08:04:59;;;;;;;7.73;4.50;;;23.80;46.50;;;;;;5034680;28;20503;-50
2023/06/12 08:07:27;;;;;;;5.90;3.93;;;23.80;46.90;;;;;;5034717;28;20555;-47
2023/06/12 08:09:54;;;;;;;5.70;3.87;;;23.90;46.50;;;;;;5034046;28;20485;-47
2023/06/12 08:12:21;;;;;;;8.20;4.27;;;23.90;46.40;;;;;;5034495;28;20533;-47
2023/06/12 08:14:53;;;;;;;10.33;3.90;;;23.90;46.40;;;;;;5034442;28;20507;-47
2023/06/12 08:17:21;;;;;;;9.27;3.70;;;23.90;46.50;;;;;;5034015;28;20457;-48
2023/06/12 08:19:49;;;;;;;5.33;3.63;;;24.00;47.10;;;;;;5033930;28;20572;-48
2023/06/12 08:22:16;;;;;;;3.83;3.43;;;24.00;44.50;;;;;;5034731;28;20461;-49
2023/06/12 08:24:44;;;;;;;4.20;3.57;;;24.00;44.60;;;;;;5034310;28;20545;-48
2023/06/12 08:27:12;;;;;;;4.83;3.23;;;24.00;44.20;;;;;;5034226;28;20467;-47
2023/06/12 08:29:40;;;;;;;4.40;3.40;;;24.10;44.60;;;;;;5033292;28;20901;-47
2023/06/12 08:32:08;;;;;;;8.13;3.93;;;24.10;44.70;;;;;;5034047;28;20511;-49
2023/06/12 08:34:34;;;;;;;6.30;4.10;;;24.10;44.90;;;;;;5052114;28;20486;-47
2023/06/12 08:37:02;;;;;;;10.13;4.47;;;24.10;45.00;;;;;;5033976;28;20896;-48
2023/06/12 08:39:29;;;;;;;7.10;3.80;;;24.20;45.10;;;;;;5033091;28;20474;-48
2023/06/12 08:42:01;;;;;;;4.93;3.53;;;24.20;44.90;;;;;;5033712;28;20507;-48
2023/06/12 08:44:29;;;;;;;8.60;3.60;;;24.30;44.80;;;;;;5051741;28;20922;-48
2023/06/12 08:46:57;;;;;;;6.27;3.70;;;24.30;44.90;;;;;;5034093;28;20480;-47
2023/06/12 08:49:24;;;;;;;4.73;3.57;;;24.30;44.60;;;;;;5033292;28;20484;-48
2023/06/12 08:51:51;;;;;;;7.63;5.10;;;24.30;44.50;;;;;;5051724;28;20537;-47
2023/06/12 08:54:20;;;;;;;4.90;3.30;;;24.20;44.40;;;;;;5051524;28;20437;-48
2023/06/12 08:56:47;;;;;;;9.40;4.73;;;24.30;44.10;;;;;;5050861;28;20850;-49
2023/06/12 08:59:14;;;;;;;14.80;3.90;;;24.10;43.70;;;;;;5050704;28;20497;-46
2023/06/12 09:01:41;;;;;;;7.17;4.47;;;24.20;43.60;;;;;;5050637;28;20438;-47
2023/06/12 09:04:16;;;;;;;5.67;3.93;;;24.40;43.80;;;;;;5050983;28;20501;-48
2023/06/12 09:06:43;;;;;;;5.20;3.70;;;24.40;43.90;;;;;;5032977;28;20885;-46
2023/06/12 09:09:10;;;;;;;10.20;3.70;;;24.50;44.20;;;;;;5030842;28;20467;-47
2023/06/12 09:11:38;;;;;;;4.53;3.93;;;24.50;44.30;;;;;;5031973;28;20460;-47
2023/06/12 09:14:06;;;;;;;7.40;3.77;;;24.50;44.60;;;;;;5029608;28;20458;-48
2023/06/12 09:16:33;;;;;;;8.07;4.37;;;24.70;45.00;;;;;;5015570;28;20587;-47
2023/06/12 09:18:59;;;;;;;6.20;4.43;;;24.70;45.00;;;;;;5030516;28;20439;-47
2023/06/12 09:21:26;;;;;;;10.53;4.53;;;24.70;44.80;;;;;;5031078;28;20444;-48
2023/06/12 09:23:55;;;;;;;6.07;3.60;;;24.70;44.90;;;;;;5030889;28;20470;-48
2023/06/12 09:26:22;;;;;;;6.10;3.80;;;24.70;44.90;;;;;;5031084;28;20991;-48
2023/06/12 09:28:52;;;;;;;8.07;3.90;;;24.60;44.90;;;;;;5030147;28;20558;-49
2023/06/12 09:31:19;;;;;;;5.37;4.20;;;24.60;45.00;;;;;;5018805;28;20450;-48
2023/06/12 09:33:46;;;;;;;10.17;4.20;;;24.60;45.10;;;;;;5023740;28;20482;-49
2023/06/12 09:36:14;;;;;;;7.87;3.60;;;24.60;45.20;;;;;;5022907;28;20566;-47
2023/06/12 09:38:41;;;;;;;7.00;4.60;;;24.50;45.00;;;;;;5030545;28;20501;-48
2023/06/12 09:41:10;;;;;;;6.53;4.33;;;24.60;45.30;;;;;;5016215;28;20479;-47
2023/06/12 09:43:36;;;;;;;10.30;4.57;;;24.60;45.30;;;;;;5019950;28;20458;-47
2023/06/12 09:46:06;;;;;;;10.63;6.03;;;24.80;45.40;;;;;;5030713;28;20455;-48
2023/06/12 09:48:36;;;;;;;7.33;4.37;;;24.80;45.30;;;;;;5027956;28;20490;-48
2023/06/12 09:51:08;;;;;;;7.37;4.80;;;24.80;45.00;;;;;;5020392;28;20471;-48
2023/06/12 09:53:39;;;;;;;9.60;4.77;;;24.80;44.90;;;;;;5030824;28;20534;-48
2023/06/12 09:56:07;;;;;;;6.40;4.13;;;24.90;45.10;;;;;;5020740;28;20479;-48
2023/06/12 09:58:37;;;;;;;8.63;4.10;;;25.00;45.30;;;;;;5022365;28;20456;-49
2023/06/12 10:01:07;;;;;;;6.60;3.80;;;25.10;45.70;;;;;;5016345;28;20566;-49
2023/06/12 10:03:37;;;;;;;5.70;4.37;;;25.10;45.80;;;;;;5020815;28;20444;-50
2023/06/12 10:06:05;;;;;;;4.73;4.23;;;25.00;45.70;;;;;;5009454;28;20427;-47
2023/06/12 10:08:32;;;;;;;6.43;4.30;;;24.90;45.80;;;;;;5008745;28;20622;-49
2023/06/12 10:10:58;;;;;;;11.40;4.77;;;24.90;46.00;;;;;;5008450;28;20487;-47
2023/06/12 10:13:26;;;;;;;5.40;4.40;;;25.00;46.00;;;;;;5010276;28;20489;-49
2023/06/12 10:15:53;;;;;;;5.67;4.50;;;25.10;46.40;;;;;;5012564;28;20483;-49
2023/06/12 10:18:24;;;;;;;10.90;4.17;;;25.30;46.40;;;;;;5018463;28;20443;-51
2023/06/12 10:20:51;;;;;;;4.77;4.27;;;25.50;46.40;;;;;;5032396;28;20952;-48
2023/06/12 10:23:18;;;;;;;7.73;4.47;;;25.50;46.40;;;;;;5034166;28;20431;-50
2023/06/12 10:25:46;;;;;;;6.30;4.77;;;25.50;46.30;;;;;;5034095;28;20442;-48
2023/06/12 10:28:13;;;;;;;5.03;4.43;;;25.70;46.70;;;;;;5033434;28;20518;-47
2023/06/12 10:31:14;;;;;;;5.83;4.00;;;25.80;46.90;;;;;;5034123;28;20560;-49
2023/06/12 10:36:39;;;;;;;8.40;4.70;;;26.00;46.90;;;;;;5105419;27;20450;-47
2023/06/12 10:39:15;;;;;;;6.63;4.95;;;26.40;46.70;;;;;;5106339;28;20740;-49
2023/06/12 10:41:52;;;;;;;5.27;4.33;;;26.80;46.30;;;;;;5086831;28;20209;-48
2023/06/12 10:44:38;;;;;;;7.90;4.60;;;26.70;46.40;;;;;;5088175;28;20441;-48
2023/06/12 10:47:06;;;;;;;20.47;4.77;;;26.60;46.60;;;;;;5088447;28;20437;-49
2023/06/12 10:49:55;;;;;;;7.80;4.47;;;26.40;46.90;;;;;;5088334;28;20480;-50
2023/06/12 10:52:23;;;;;;;6.55;4.93;;;26.40;47.20;;;;;;5072184;28;20443;-49
2023/06/12 10:55:23;;;;;;;5.50;4.30;;;26.60;46.50;;;;;;5087088;28;21011;-48
2023/06/12 10:57:52;;;;;;;5.47;4.47;;;26.60;46.00;;;;;;5088839;28;20429;-47
2023/06/12 11:00:21;;;;;;;10.10;4.43;;;26.20;46.70;;;;;;5088021;28;20468;-50
2023/06/12 11:02:57;;;;;;;6.57;4.63;;;26.00;47.20;;;;;;5088478;28;20437;-49
2023/06/12 11:05:24;;;;;;;8.13;4.77;;;26.00;47.30;;;;;;5088508;28;20437;-48
2023/06/12 11:07:55;;;;;;;4.40;3.77;;;26.00;46.80;;;;;;5089044;28;20623;-49
2023/06/12 11:10:22;;;;;;;5.80;3.77;;;26.10;46.20;;;;;;5087995;28;20453;-48
2023/06/12 11:12:51;;;;;;;9.77;6.23;;;26.10;45.50;;;;;;5088777;28;20776;-49
2023/06/12 11:15:18;;;;;;;6.35;4.15;;;26.10;45.00;;;;;;5087301;28;20454;-50
2023/06/12 11:17:44;;;;;;;4.83;4.30;;;26.70;43.40;;;;;;5088244;28;20195;-47
2023/06/12 11:20:13;;;;;;;7.60;4.63;;;26.70;43.70;;;;;;5088000;28;20452;-48
2023/06/12 11:22:40;;;;;;;7.87;7.17;;;26.90;43.80;;;;;;5088119;28;20437;-48
2023/06/12 11:25:09;;;;;;;5.53;3.97;;;27.00;43.30;;;;;;5088456;28;20429;-48
2023/06/12 11:27:36;;;;;;;7.47;3.83;;;27.00;44.40;;;;;;5087975;28;20429;-48
2023/06/12 11:30:10;;;;;;;6.38;4.13;;;26.80;45.00;;;;;;5087301;28;20451;-50
2023/06/12 11:32:38;;;;;;;5.60;4.10;;;26.80;45.40;;;;;;5085482;28;20548;-49
2023/06/12 11:35:06;;;;;;;6.40;3.90;;;26.60;45.70;;;;;;5085105;28;20444;-49
2023/06/12 11:37:33;;;;;;;9.17;4.80;;;26.80;45.00;;;;;;5087465;28;20257;-51
2023/06/12 11:40:06;;;;;;;5.67;4.90;;;26.50;45.40;;;;;;5087650;28;20465;-49
2023/06/12 11:42:34;;;;;;;7.83;4.87;;;26.40;45.60;;;;;;5087723;28;20528;-49
2023/06/12 11:45:01;;;;;;;6.93;4.80;;;26.40;45.50;;;;;;5086520;28;20817;-49
2023/06/12 11:47:28;;;;;;;7.03;5.70;;;26.30;45.20;;;;;;5076327;28;20429;-49
2023/06/12 11:49:55;;;;;;;5.60;4.10;;;26.30;45.00;;;;;;5073767;28;20767;-49
2023/06/12 11:52:22;;;;;;;4.60;4.07;;;26.40;45.10;;;;;;5072884;28;20452;-50
2023/06/12 11:54:57;;;;;;;7.60;4.27;;;26.40;45.00;;;;;;5073882;28;20879;-47
2023/06/12 11:57:26;;;;;;;7.47;4.60;;;26.40;44.80;;;;;;5073688;28;20465;-49
2023/06/12 11:59:57;;;;;;;6.70;4.70;;;26.10;44.80;;;;;;5073469;28;20545;-52
2023/06/12 12:02:29;;;;;;;8.20;4.67;;;26.40;45.10;;;;;;5073639;28;20422;-49
2023/06/12 12:04:57;;;;;;;6.28;4.30;;;26.70;44.60;;;;;;5073328;28;20476;-50
2023/06/12 12:07:24;;;;;;;7.10;4.70;;;26.80;44.00;;;;;;5072221;28;20517;-47
2023/06/12 12:10:03;;;;;;;7.97;3.87;;;27.10;43.30;;;;;;5072011;28;20469;-46
2023/06/12 12:12:39;;;;;;;4.43;4.03;;;26.80;42.90;;;;;;5073414;28;20426;-49
2023/06/12 12:15:10;;;;;;;5.60;4.73;;;26.60;42.90;;;;;;5073482;28;20989;-48
2023/06/12 12:17:37;;;;;;;8.90;4.73;;;26.40;43.50;;;;;;5071869;28;20445;-47
2023/06/12 12:20:04;;;;;;;8.50;5.00;;;26.40;43.70;;;;;;5073090;28;20763;-48
2023/06/12 12:22:31;;;;;;;8.47;4.47;;;26.40;43.50;;;;;;5073434;28;20434;-49
2023/06/12 12:24:58;;;;;;;7.00;4.30;;;26.30;43.20;;;;;;5073922;28;20459;-48
2023/06/12 12:27:27;;;;;;;5.83;4.17;;;26.50;43.40;;;;;;5072988;28;20468;-49
2023/06/12 12:29:53;;;;;;;7.63;4.10;;;26.50;43.40;;;;;;5072964;28;20462;-49
2023/06/12 12:32:21;;;;;;;7.70;4.37;;;26.60;43.80;;;;;;5071967;28;20437;-49
2023/06/12 12:34:48;;;;;;;10.80;4.60;;;26.40;44.50;;;;;;5053272;28;20537;-47
2023/06/12 12:37:15;;;;;;;4.73;4.20;;;26.40;44.20;;;;;;5052879;28;20496;-48
2023/06/12 12:39:41;;;;;;;7.57;4.50;;;26.30;44.20;;;;;;5055418;28;20505;-49
2023/06/12 12:42:08;;;;;;;4.80;4.10;;;26.30;44.20;;;;;;5071682;28;20437;-49
2023/06/12 12:44:35;;;;;;;5.90;4.40;;;26.70;43.30;;;;;;5071912;28;20772;-48
2023/06/12 12:47:02;;;;;;;7.00;4.40;;;26.90;42.90;;;;;;5072854;28;20203;-48
2023/06/12 12:49:30;;;;;;;6.00;5.10;;;26.80;43.10;;;;;;5072578;28;20450;-49
2023/06/12 12:51:56;;;;;;;4.50;4.00;;;26.50;42.90;;;;;;5072470;28;20434;-49
2023/06/12 12:54:23;;;;;;;7.87;4.30;;;26.60;43.10;;;;;;5072833;28;20436;-49
2023/06/12 12:56:50;;;;;;;9.60;4.83;;;26.50;43.00;;;;;;5072541;28;20494;-49